sensor_id;sensor_type;location;lat;lon;timestamp;pressure;altitude;pressure_sealevel;temperature;humidity
41636;BME280;27623;51.966;4.602;2023-01-29T00:02:08;63813.09;;;6.16;80.69
41636;BME280;27623;51.966;4.602;2023-01-29T00:04:33;63776.94;;;6.13;80.33
41636;BME280;27623;51.966;4.602;2023-01-29T00:06:59;63772.59;;;6.09;80.81
41636;BME280;27623;51.966;4.602;2023-01-29T00:09:24;63753.47;;;5.96;81.37
41636;BME280;27623;51.966;4.602;2023-01-29T00:11:50;63793.94;;;6.17;81.35
41636;BME280;27623;51.966;4.602;2023-01-29T00:14:18;63795.91;;;6.31;81.44
41636;BME280;27623;51.966;4.602;2023-01-29T00:16:44;63806.59;;;6.17;80.94
41636;BME280;27623;51.966;4.602;2023-01-29T00:19:09;63784.53;;;6.20;80.51
41636;BME280;27623;51.966;4.602;2023-01-29T00:21:35;63765.88;;;5.72;81.19
41636;BME280;27623;51.966;4.602;2023-01-29T00:24:00;63714.97;;;5.60;81.40
41636;BME280;27623;51.966;4.602;2023-01-29T00:26:26;63763.41;;;5.94;82.68
41636;BME280;27623;51.966;4.602;2023-01-29T00:28:53;63749.13;;;5.92;81.29
41636;BME280;27623;51.966;4.602;2023-01-29T00:31:23;63775.84;;;6.12;81.49
41636;BME280;27623;51.966;4.602;2023-01-29T00:33:49;63724.00;;;5.73;80.48
41636;BME280;27623;51.966;4.602;2023-01-29T00:36:16;63721.28;;;5.71;81.69
41636;BME280;27623;51.966;4.602;2023-01-29T00:38:42;63738.63;;;5.80;81.93
41636;BME280;27623;51.966;4.602;2023-01-29T00:41:13;63713.19;;;5.92;81.26
41636;BME280;27623;51.966;4.602;2023-01-29T00:43:57;63770.44;;;6.07;80.69
41636;BME280;27623;51.966;4.602;2023-01-29T00:46:42;63708.84;;;5.73;81.09
41636;BME280;27623;51.966;4.602;2023-01-29T00:49:07;63741.53;;;5.78;81.30
41636;BME280;27623;51.966;4.602;2023-01-29T00:51:33;63708.66;;;5.71;80.75
41636;BME280;27623;51.966;4.602;2023-01-29T00:53:59;63691.13;;;5.45;82.02
41636;BME280;27623;51.966;4.602;2023-01-29T00:56:28;63691.84;;;5.41;82.77
41636;BME280;27623;51.966;4.602;2023-01-29T00:58:54;63716.41;;;5.66;82.92
41636;BME280;27623;51.966;4.602;2023-01-29T01:01:20;63724.00;;;5.59;82.65
41636;BME280;27623;51.966;4.602;2023-01-29T01:04:07;63705.41;;;5.46;82.42
41636;BME280;27623;51.966;4.602;2023-01-29T01:06:32;63686.09;;;5.45;83.76
41636;BME280;27623;51.966;4.602;2023-01-29T01:08:59;63683.38;;;5.35;84.03
41636;BME280;27623;51.966;4.602;2023-01-29T01:11:43;63739.53;;;5.85;83.96
41636;BME280;27623;51.966;4.602;2023-01-29T01:14:08;63737.91;;;5.77;83.99
41636;BME280;27623;51.966;4.602;2023-01-29T01:16:33;63729.78;;;5.83;83.48
41636;BME280;27623;51.966;4.602;2023-01-29T01:18:59;63712.44;;;5.53;83.26
41636;BME280;27623;51.966;4.602;2023-01-29T01:21:25;63725.28;;;5.77;83.54
41636;BME280;27623;51.966;4.602;2023-01-29T01:23:52;63763.91;;;5.73;84.45
41636;BME280;27623;51.966;4.602;2023-01-29T01:26:18;63764.84;;;6.00;84.16
41636;BME280;27623;51.966;4.602;2023-01-29T01:28:44;63772.25;;;5.97;82.78
41636;BME280;27623;51.966;4.602;2023-01-29T01:31:10;63755.63;;;6.12;82.58
41636;BME280;27623;51.966;4.602;2023-01-29T01:33:36;63770.44;;;6.14;82.18
41636;BME280;27623;51.966;4.602;2023-01-29T01:36:02;63806.75;;;6.27;82.82
41636;BME280;27623;51.966;4.602;2023-01-29T01:38:30;63805.31;;;6.28;81.80
41636;BME280;27623;51.966;4.602;2023-01-29T01:40:58;63778.75;;;6.25;81.69
41636;BME280;27623;51.966;4.602;2023-01-29T01:43:23;63761.03;;;6.10;81.28
41636;BME280;27623;51.966;4.602;2023-01-29T01:45:49;63764.84;;;6.21;81.73
41636;BME280;27623;51.966;4.602;2023-01-29T01:48:21;63784.91;;;6.40;82.24
41636;BME280;27623;51.966;4.602;2023-01-29T01:50:59;63808.94;;;6.43;80.80
41636;BME280;27623;51.966;4.602;2023-01-29T01:53:34;63759.59;;;6.11;79.94
41636;BME280;27623;51.966;4.602;2023-01-29T01:56:07;63763.56;;;6.10;81.21
41636;BME280;27623;51.966;4.602;2023-01-29T01:58:40;63820.13;;;6.37;80.97
41636;BME280;27623;51.966;4.602;2023-01-29T02:01:07;63801.69;;;6.48;80.44
41636;BME280;27623;51.966;4.602;2023-01-29T02:03:48;63764.09;;;6.04;79.29
41636;BME280;27623;51.966;4.602;2023-01-29T02:06:34;63786.16;;;6.15;81.48
41636;BME280;27623;51.966;4.602;2023-01-29T02:09:25;63772.97;;;6.22;81.04
41636;BME280;27623;51.966;4.602;2023-01-29T02:12:02;63775.50;;;5.93;79.84
41636;BME280;27623;51.966;4.602;2023-01-29T02:14:28;63738.47;;;5.92;80.58
41636;BME280;27623;51.966;4.602;2023-01-29T02:16:56;63746.91;;;5.62;81.16
41636;BME280;27623;51.966;4.602;2023-01-29T02:19:44;63726.34;;;5.71;82.44
41636;BME280;27623;51.966;4.602;2023-01-29T02:28:10;63758.84;;;5.87;82.35
41636;BME280;27623;51.966;4.602;2023-01-29T02:39:00;63704.50;;;5.48;83.93
41636;BME280;27623;51.966;4.602;2023-01-29T02:44:12;63734.28;;;5.62;83.68
41636;BME280;27623;51.966;4.602;2023-01-29T02:49:26;63693.13;;;5.59;84.30
41636;BME280;27623;51.966;4.602;2023-01-29T02:52:50;63738.06;;;5.65;85.27
41636;BME280;27623;51.966;4.602;2023-01-29T02:57:22;63729.78;;;5.69;84.20
41636;BME280;27623;51.966;4.602;2023-01-29T02:59:54;63783.41;;;5.84;84.41
41636;BME280;27623;51.966;4.602;2023-01-29T03:02:29;63703.59;;;5.64;84.07
41636;BME280;27623;51.966;4.602;2023-01-29T03:05:02;63711.91;;;5.67;85.14
41636;BME280;27623;51.966;4.602;2023-01-29T03:07:43;63732.66;;;5.67;84.79
41636;BME280;27623;51.966;4.602;2023-01-29T03:10:27;63743.53;;;5.92;84.71
41636;BME280;27623;51.966;4.602;2023-01-29T03:13:00;63738.28;;;5.75;84.67
41636;BME280;27623;51.966;4.602;2023-01-29T03:15:30;63710.28;;;5.72;84.38
41636;BME280;27623;51.966;4.602;2023-01-29T03:18:10;63715.69;;;5.70;85.40
41636;BME280;27623;51.966;4.602;2023-01-29T03:20:41;63739.00;;;5.78;84.30
41636;BME280;27623;51.966;4.602;2023-01-29T03:23:18;63751.44;;;5.82;84.67
41636;BME280;27623;51.966;4.602;2023-01-29T03:25:50;63734.28;;;5.83;84.32
41636;BME280;27623;51.966;4.602;2023-01-29T03:28:37;63743.50;;;5.63;85.02
41636;BME280;27623;51.966;4.602;2023-01-29T03:31:24;63712.97;;;5.39;84.64
41636;BME280;27623;51.966;4.602;2023-01-29T03:34:13;63674.00;;;5.31;85.80
41636;BME280;27623;51.966;4.602;2023-01-29T03:36:51;63690.06;;;5.37;86.19
41636;BME280;27623;51.966;4.602;2023-01-29T03:39:23;63710.81;;;5.59;86.71
41636;BME280;27623;51.966;4.602;2023-01-29T03:44:29;63738.81;;;5.68;85.67
41636;BME280;27623;51.966;4.602;2023-01-29T03:52:09;63632.50;;;5.09;88.20
41636;BME280;27623;51.966;4.602;2023-01-29T03:59:45;63722.56;;;5.39;88.93
41636;BME280;27623;51.966;4.602;2023-01-29T04:02:18;63728.16;;;5.61;88.28
41636;BME280;27623;51.966;4.602;2023-01-29T04:04:47;63668.75;;;5.22;87.40
41636;BME280;27623;51.966;4.602;2023-01-29T04:07:20;63723.63;;;5.47;87.36
41636;BME280;27623;51.966;4.602;2023-01-29T04:09:56;63624.56;;;5.04;88.70
41636;BME280;27623;51.966;4.602;2023-01-29T04:12:27;63672.88;;;5.02;87.87
41636;BME280;27623;51.966;4.602;2023-01-29T04:14:56;63654.88;;;4.97;88.99
41636;BME280;27623;51.966;4.602;2023-01-29T04:17:28;63651.97;;;5.20;88.71
41636;BME280;27623;51.966;4.602;2023-01-29T04:19:58;63686.81;;;5.41;88.59
41636;BME280;27623;51.966;4.602;2023-01-29T04:22:31;63674.72;;;5.20;87.68
41636;BME280;27623;51.966;4.602;2023-01-29T04:24:58;63681.94;;;5.29;88.01
41636;BME280;27623;51.966;4.602;2023-01-29T04:27:56;63723.44;;;5.44;88.27
41636;BME280;27623;51.966;4.602;2023-01-29T04:41:13;63696.34;;;5.12;87.98
41636;BME280;27623;51.966;4.602;2023-01-29T04:43:54;63714.22;;;5.29;87.50
41636;BME280;27623;51.966;4.602;2023-01-29T04:46:43;63664.78;;;5.01;87.07
41636;BME280;27623;51.966;4.602;2023-01-29T04:51:56;63700.00;;;5.34;86.71
41636;BME280;27623;51.966;4.602;2023-01-29T04:54:31;63677.06;;;5.39;87.24
41636;BME280;27623;51.966;4.602;2023-01-29T04:57:17;63722.53;;;5.46;86.66
41636;BME280;27623;51.966;4.602;2023-01-29T04:59:52;63642.59;;;5.23;85.21
41636;BME280;27623;51.966;4.602;2023-01-29T05:02:21;63715.31;;;5.37;86.83
41636;BME280;27623;51.966;4.602;2023-01-29T05:04:56;63734.47;;;5.57;87.72
41636;BME280;27623;51.966;4.602;2023-01-29T05:07:27;63708.81;;;5.45;86.50
41636;BME280;27623;51.966;4.602;2023-01-29T05:09:55;63730.84;;;5.49;86.22
41636;BME280;27623;51.966;4.602;2023-01-29T05:12:24;63707.22;;;5.58;86.09
41636;BME280;27623;51.966;4.602;2023-01-29T05:14:51;63727.06;;;5.52;84.03
41636;BME280;27623;51.966;4.602;2023-01-29T05:17:19;63685.00;;;5.44;84.71
41636;BME280;27623;51.966;4.602;2023-01-29T05:19:45;63721.81;;;5.50;84.11
41636;BME280;27623;51.966;4.602;2023-01-29T05:22:12;63696.19;;;5.45;84.32
41636;BME280;27623;51.966;4.602;2023-01-29T05:24:39;63714.44;;;5.60;84.96
41636;BME280;27623;51.966;4.602;2023-01-29T05:27:05;63697.09;;;5.58;85.51
41636;BME280;27623;51.966;4.602;2023-01-29T05:29:49;63729.22;;;5.47;84.05
41636;BME280;27623;51.966;4.602;2023-01-29T05:32:15;63747.28;;;5.52;84.21
41636;BME280;27623;51.966;4.602;2023-01-29T05:34:40;63719.66;;;5.62;84.71
41636;BME280;27623;51.966;4.602;2023-01-29T05:37:06;63691.50;;;5.50;83.45
41636;BME280;27623;51.966;4.602;2023-01-29T05:39:32;63669.84;;;5.44;83.33
41636;BME280;27623;51.966;4.602;2023-01-29T05:41:58;63721.09;;;5.47;82.84
41636;BME280;27623;51.966;4.602;2023-01-29T05:44:24;63688.97;;;5.29;83.26
41636;BME280;27623;51.966;4.602;2023-01-29T05:46:49;63715.88;;;5.44;84.66
41636;BME280;27623;51.966;4.602;2023-01-29T05:49:16;63703.03;;;5.28;84.62
41636;BME280;27623;51.966;4.602;2023-01-29T05:51:43;63636.66;;;5.25;84.12
41636;BME280;27623;51.966;4.602;2023-01-29T05:54:12;63626.75;;;4.99;85.00
41636;BME280;27623;51.966;4.602;2023-01-29T05:56:38;63663.34;;;5.02;85.64
41636;BME280;27623;51.966;4.602;2023-01-29T05:59:04;63672.34;;;5.01;86.13
41636;BME280;27623;51.966;4.602;2023-01-29T06:01:29;63632.31;;;4.92;86.11
41636;BME280;27623;51.966;4.602;2023-01-29T06:03:55;63658.66;;;4.93;86.23
41636;BME280;27623;51.966;4.602;2023-01-29T06:06:20;63649.81;;;4.90;86.38
41636;BME280;27623;51.966;4.602;2023-01-29T06:08:46;63687.69;;;5.11;86.46
41636;BME280;27623;51.966;4.602;2023-01-29T06:11:13;63685.72;;;5.11;87.28
41636;BME280;27623;51.966;4.602;2023-01-29T06:13:39;63664.25;;;5.15;87.78
41636;BME280;27623;51.966;4.602;2023-01-29T06:16:06;63676.72;;;5.20;85.98
41636;BME280;27623;51.966;4.602;2023-01-29T06:18:32;63668.75;;;5.00;86.40
41636;BME280;27623;51.966;4.602;2023-01-29T06:21:02;63616.44;;;4.82;85.94
41636;BME280;27623;51.966;4.602;2023-01-29T06:23:28;63652.50;;;4.92;87.05
41636;BME280;27623;51.966;4.602;2023-01-29T06:25:58;63654.69;;;5.08;87.86
41636;BME280;27623;51.966;4.602;2023-01-29T06:28:24;63639.34;;;5.06;87.29
41636;BME280;27623;51.966;4.602;2023-01-29T06:30:50;63666.44;;;5.17;86.86
41636;BME280;27623;51.966;4.602;2023-01-29T06:33:15;63678.53;;;5.38;87.25
41636;BME280;27623;51.966;4.602;2023-01-29T06:35:41;63689.84;;;4.99;86.42
41636;BME280;27623;51.966;4.602;2023-01-29T06:38:07;63642.22;;;4.75;87.35
41636;BME280;27623;51.966;4.602;2023-01-29T06:40:33;63631.38;;;4.65;87.39
41636;BME280;27623;51.966;4.602;2023-01-29T06:42:59;63611.03;;;4.84;88.41
41636;BME280;27623;51.966;4.602;2023-01-29T06:45:25;63648.16;;;4.81;87.95
41636;BME280;27623;51.966;4.602;2023-01-29T06:47:51;63654.84;;;4.82;88.37
41636;BME280;27623;51.966;4.602;2023-01-29T06:50:16;63596.97;;;4.64;88.95
41636;BME280;27623;51.966;4.602;2023-01-29T06:52:42;63618.78;;;4.72;88.92
41636;BME280;27623;51.966;4.602;2023-01-29T06:55:08;63634.31;;;4.92;88.11
41636;BME280;27623;51.966;4.602;2023-01-29T06:57:33;63637.72;;;4.90;89.42
41636;BME280;27623;51.966;4.602;2023-01-29T06:59:59;63653.41;;;4.83;87.90
41636;BME280;27623;51.966;4.602;2023-01-29T07:02:24;63654.88;;;4.97;88.45
41636;BME280;27623;51.966;4.602;2023-01-29T07:04:50;63594.81;;;4.76;88.55
41636;BME280;27623;51.966;4.602;2023-01-29T07:07:15;63627.25;;;4.85;88.03
41636;BME280;27623;51.966;4.602;2023-01-29T07:09:41;63639.88;;;4.85;87.64
41636;BME280;27623;51.966;4.602;2023-01-29T07:12:09;63647.63;;;4.73;88.76
41636;BME280;27623;51.966;4.602;2023-01-29T07:14:34;63639.34;;;4.84;88.65
41636;BME280;27623;51.966;4.602;2023-01-29T07:17:00;63658.28;;;5.02;88.59
41636;BME280;27623;51.966;4.602;2023-01-29T07:19:25;63651.59;;;4.79;88.32
41636;BME280;27623;51.966;4.602;2023-01-29T07:21:51;63648.34;;;4.69;88.67
41636;BME280;27623;51.966;4.602;2023-01-29T07:24:19;63662.44;;;4.90;88.17
41636;BME280;27623;51.966;4.602;2023-01-29T07:26:44;63638.81;;;4.91;88.38
41636;BME280;27623;51.966;4.602;2023-01-29T07:29:13;63648.38;;;4.98;87.43
41636;BME280;27623;51.966;4.602;2023-01-29T07:31:38;63649.25;;;4.89;88.28
41636;BME280;27623;51.966;4.602;2023-01-29T07:34:04;63674.91;;;5.30;88.42
41636;BME280;27623;51.966;4.602;2023-01-29T07:36:30;63722.38;;;5.36;88.25
41636;BME280;27623;51.966;4.602;2023-01-29T07:38:56;63705.94;;;5.47;87.24
41636;BME280;27623;51.966;4.602;2023-01-29T07:41:22;63694.75;;;5.39;86.70
41636;BME280;27623;51.966;4.602;2023-01-29T07:43:47;63670.38;;;5.09;85.89
41636;BME280;27623;51.966;4.602;2023-01-29T07:46:13;63635.91;;;4.79;87.52
41636;BME280;27623;51.966;4.602;2023-01-29T07:48:38;63609.22;;;4.87;87.34
41636;BME280;27623;51.966;4.602;2023-01-29T07:51:04;63640.97;;;5.00;88.17
41636;BME280;27623;51.966;4.602;2023-01-29T07:53:30;63665.31;;;5.02;87.74
41636;BME280;27623;51.966;4.602;2023-01-29T07:55:56;63652.50;;;4.99;88.25
41636;BME280;27623;51.966;4.602;2023-01-29T07:58:21;63689.16;;;5.17;87.90
41636;BME280;27623;51.966;4.602;2023-01-29T08:00:47;63667.69;;;5.28;88.44
41636;BME280;27623;51.966;4.602;2023-01-29T08:03:16;63696.53;;;5.14;86.61
41636;BME280;27623;51.966;4.602;2023-01-29T08:05:42;63650.00;;;5.21;88.04
41636;BME280;27623;51.966;4.602;2023-01-29T08:08:09;63621.50;;;4.96;86.90
41636;BME280;27623;51.966;4.602;2023-01-29T08:10:35;63647.47;;;4.99;88.21
41636;BME280;27623;51.966;4.602;2023-01-29T08:13:04;63649.59;;;4.80;88.44
41636;BME280;27623;51.966;4.602;2023-01-29T08:15:31;63628.34;;;4.79;88.31
41636;BME280;27623;51.966;4.602;2023-01-29T08:17:57;63648.91;;;4.91;88.80
41636;BME280;27623;51.966;4.602;2023-01-29T08:20:22;63600.03;;;4.64;88.88
41636;BME280;27623;51.966;4.602;2023-01-29T08:22:48;63669.47;;;4.89;89.15
41636;BME280;27623;51.966;4.602;2023-01-29T08:25:14;63618.25;;;4.86;88.97
41636;BME280;27623;51.966;4.602;2023-01-29T08:27:40;63657.72;;;4.73;88.67
41636;BME280;27623;51.966;4.602;2023-01-29T08:30:10;63644.53;;;4.66;88.89
41636;BME280;27623;51.966;4.602;2023-01-29T08:32:35;63613.91;;;4.82;90.23
41636;BME280;27623;51.966;4.602;2023-01-29T08:35:01;63655.19;;;4.73;90.88
41636;BME280;27623;51.966;4.602;2023-01-29T08:37:26;63646.19;;;4.81;90.65
41636;BME280;27623;51.966;4.602;2023-01-29T08:39:51;63644.22;;;4.89;89.64
41636;BME280;27623;51.966;4.602;2023-01-29T08:42:17;63575.16;;;4.62;88.89
41636;BME280;27623;51.966;4.602;2023-01-29T08:44:42;63640.22;;;4.83;89.91
41636;BME280;27623;51.966;4.602;2023-01-29T08:47:08;63654.84;;;5.04;88.41
41636;BME280;27623;51.966;4.602;2023-01-29T08:49:33;63664.97;;;4.97;88.49
41636;BME280;27623;51.966;4.602;2023-01-29T08:51:59;63640.06;;;4.95;88.81
41636;BME280;27623;51.966;4.602;2023-01-29T08:54:25;63672.72;;;5.06;89.21
41636;BME280;27623;51.966;4.602;2023-01-29T08:56:50;63683.91;;;5.22;89.50
41636;BME280;27623;51.966;4.602;2023-01-29T08:59:16;63661.34;;;4.96;88.97
41636;BME280;27623;51.966;4.602;2023-01-29T09:01:42;63644.75;;;5.04;88.12
41636;BME280;27623;51.966;4.602;2023-01-29T09:04:07;63692.91;;;4.92;88.35
41636;BME280;27623;51.966;4.602;2023-01-29T09:06:33;63643.16;;;4.95;88.31
41636;BME280;27623;51.966;4.602;2023-01-29T09:08:58;63701.41;;;5.12;88.79
41636;BME280;27623;51.966;4.602;2023-01-29T09:11:24;63648.19;;;4.95;87.99
41636;BME280;27623;51.966;4.602;2023-01-29T09:13:49;63683.38;;;5.14;89.50
41636;BME280;27623;51.966;4.602;2023-01-29T09:16:15;63625.47;;;5.16;87.74
41636;BME280;27623;51.966;4.602;2023-01-29T09:18:41;63667.66;;;5.06;88.00
41636;BME280;27623;51.966;4.602;2023-01-29T09:21:06;63680.31;;;5.13;89.01
41636;BME280;27623;51.966;4.602;2023-01-29T09:23:32;63662.06;;;5.06;88.80
41636;BME280;27623;51.966;4.602;2023-01-29T09:25:58;63656.69;;;5.15;88.12
41636;BME280;27623;51.966;4.602;2023-01-29T09:28:24;63686.97;;;5.08;88.45
41636;BME280;27623;51.966;4.602;2023-01-29T09:30:49;63652.16;;;5.08;88.33
41636;BME280;27623;51.966;4.602;2023-01-29T09:33:15;63617.34;;;4.88;88.97
41636;BME280;27623;51.966;4.602;2023-01-29T09:35:42;63669.13;;;5.12;88.93
41636;BME280;27623;51.966;4.602;2023-01-29T09:38:08;63683.91;;;5.07;88.42
41636;BME280;27623;51.966;4.602;2023-01-29T09:43:23;63641.16;;;5.03;89.20
41636;BME280;27623;51.966;4.602;2023-01-29T09:45:55;63635.56;;;4.95;89.07
41636;BME280;27623;51.966;4.602;2023-01-29T09:48:26;63683.19;;;5.33;88.06
41636;BME280;27623;51.966;4.602;2023-01-29T09:50:53;63663.34;;;5.16;88.49
41636;BME280;27623;51.966;4.602;2023-01-29T09:53:32;63703.00;;;5.06;88.73
41636;BME280;27623;51.966;4.602;2023-01-29T09:56:07;63689.34;;;5.20;88.40
41636;BME280;27623;51.966;4.602;2023-01-29T09:58:39;63720.56;;;5.39;87.50
41636;BME280;27623;51.966;4.602;2023-01-29T10:12:32;63676.16;;;5.19;87.83
41636;BME280;27623;51.966;4.602;2023-01-29T10:23:26;63707.91;;;5.25;89.52
41636;BME280;27623;51.966;4.602;2023-01-29T10:25:54;63681.75;;;5.12;88.99
41636;BME280;27623;51.966;4.602;2023-01-29T10:28:33;63698.91;;;5.19;89.05
41636;BME280;27623;51.966;4.602;2023-01-29T10:31:03;63705.19;;;5.23;88.80
41636;BME280;27623;51.966;4.602;2023-01-29T10:33:37;63672.72;;;5.13;89.71
41636;BME280;27623;51.966;4.602;2023-01-29T10:36:07;63666.41;;;5.03;90.12
41636;BME280;27623;51.966;4.602;2023-01-29T10:38:46;63711.72;;;5.43;88.51
41636;BME280;27623;51.966;4.602;2023-01-29T10:41:18;63690.03;;;5.23;89.38
41636;BME280;27623;51.966;4.602;2023-01-29T10:54:30;63674.88;;;5.23;91.08
41636;BME280;27623;51.966;4.602;2023-01-29T10:57:13;63689.34;;;5.20;89.71
41636;BME280;27623;51.966;4.602;2023-01-29T11:02:14;63738.25;;;5.39;90.86
41636;BME280;27623;51.966;4.602;2023-01-29T11:04:41;63748.72;;;5.44;89.99
41636;BME280;27623;51.966;4.602;2023-01-29T11:07:08;63738.97;;;5.57;90.86
41636;BME280;27623;51.966;4.602;2023-01-29T11:09:40;63684.28;;;5.41;89.37
41636;BME280;27623;51.966;4.602;2023-01-29T11:12:20;63704.31;;;5.31;89.71
41636;BME280;27623;51.966;4.602;2023-01-29T11:15:14;63707.56;;;5.27;90.46
41636;BME280;27623;51.966;4.602;2023-01-29T11:18:00;63718.38;;;5.44;90.75
41636;BME280;27623;51.966;4.602;2023-01-29T11:20:27;63686.81;;;5.34;90.55
41636;BME280;27623;51.966;4.602;2023-01-29T11:22:55;63748.00;;;5.56;90.00
41636;BME280;27623;51.966;4.602;2023-01-29T11:25:22;63717.69;;;5.56;90.46
41636;BME280;27623;51.966;4.602;2023-01-29T11:27:54;63697.47;;;5.48;90.13
41636;BME280;27623;51.966;4.602;2023-01-29T11:30:27;63723.44;;;5.44;89.62
41636;BME280;27623;51.966;4.602;2023-01-29T11:35:29;63705.03;;;5.48;90.72
41636;BME280;27623;51.966;4.602;2023-01-29T11:38:07;63721.09;;;5.61;90.47
41636;BME280;27623;51.966;4.602;2023-01-29T11:40:38;63736.81;;;5.62;91.25
41636;BME280;27623;51.966;4.602;2023-01-29T11:43:18;63721.66;;;5.62;90.13
41636;BME280;27623;51.966;4.602;2023-01-29T11:45:50;63711.72;;;5.57;90.05
41636;BME280;27623;51.966;4.602;2023-01-29T11:48:18;63728.34;;;5.56;90.62
41636;BME280;27623;51.966;4.602;2023-01-29T11:50:55;63751.44;;;5.61;90.00
41636;BME280;27623;51.966;4.602;2023-01-29T11:54:04;63705.03;;;5.70;90.32
41636;BME280;27623;51.966;4.602;2023-01-29T11:58:56;63769.16;;;5.75;89.55
41636;BME280;27623;51.966;4.602;2023-01-29T12:01:32;63715.88;;;5.59;88.55
41636;BME280;27623;51.966;4.602;2023-01-29T12:03:58;63743.16;;;5.72;89.70
41636;BME280;27623;51.966;4.602;2023-01-29T12:06:43;63739.34;;;5.76;88.90
41636;BME280;27623;51.966;4.602;2023-01-29T12:09:14;63745.69;;;5.79;89.39
41636;BME280;27623;51.966;4.602;2023-01-29T12:11:41;63775.28;;;5.83;88.79
41636;BME280;27623;51.966;4.602;2023-01-29T12:14:29;63698.19;;;5.59;89.52
41636;BME280;27623;51.966;4.602;2023-01-29T12:25:21;63724.72;;;5.83;88.60
41636;BME280;27623;51.966;4.602;2023-01-29T12:27:54;63746.97;;;5.90;89.03
41636;BME280;27623;51.966;4.602;2023-01-29T12:35:49;63722.56;;;5.89;89.08
41636;BME280;27623;51.966;4.602;2023-01-29T12:38:19;63765.91;;;5.94;88.64
41636;BME280;27623;51.966;4.602;2023-01-29T12:40:52;63742.59;;;5.86;88.04
41636;BME280;27623;51.966;4.602;2023-01-29T12:43:42;63793.03;;;6.26;88.03
41636;BME280;27623;51.966;4.602;2023-01-29T12:46:21;63797.38;;;6.23;86.59
41636;BME280;27623;51.966;4.602;2023-01-29T12:48:48;63767.56;;;6.02;87.61
41636;BME280;27623;51.966;4.602;2023-01-29T12:51:17;63755.09;;;5.91;88.11
41636;BME280;27623;51.966;4.602;2023-01-29T12:53:56;63767.34;;;5.85;88.21
41636;BME280;27623;51.966;4.602;2023-01-29T12:58:53;63781.22;;;5.82;87.96
41636;BME280;27623;51.966;4.602;2023-01-29T13:01:28;63784.34;;;5.97;88.33
41636;BME280;27623;51.966;4.602;2023-01-29T13:03:58;63732.47;;;5.86;88.83
41636;BME280;27623;51.966;4.602;2023-01-29T13:06:30;63748.78;;;6.01;88.60
41636;BME280;27623;51.966;4.602;2023-01-29T13:09:01;63802.22;;;5.92;88.25
41636;BME280;27623;51.966;4.602;2023-01-29T13:11:43;63785.78;;;6.03;88.86
41636;BME280;27623;51.966;4.602;2023-01-29T13:19:51;63750.56;;;5.77;88.72
41636;BME280;27623;51.966;4.602;2023-01-29T13:22:23;63769.13;;;5.82;89.57
41636;BME280;27623;51.966;4.602;2023-01-29T13:24:49;63762.31;;;6.00;89.47
41636;BME280;27623;51.966;4.602;2023-01-29T13:27:42;63782.53;;;5.93;88.59
41636;BME280;27623;51.966;4.602;2023-01-29T13:30:23;63755.81;;;5.94;88.62
41636;BME280;27623;51.966;4.602;2023-01-29T13:32:52;63801.50;;;6.03;88.43
41636;BME280;27623;51.966;4.602;2023-01-29T13:35:20;63753.09;;;5.98;88.63
41636;BME280;27623;51.966;4.602;2023-01-29T13:37:48;63733.94;;;5.85;88.97
41636;BME280;27623;51.966;4.602;2023-01-29T13:40:22;63773.13;;;6.03;89.11
41636;BME280;27623;51.966;4.602;2023-01-29T13:42:49;63801.88;;;6.23;88.28
41636;BME280;27623;51.966;4.602;2023-01-29T13:45:23;63735.22;;;5.96;88.12
41636;BME280;27623;51.966;4.602;2023-01-29T13:47:50;63795.00;;;6.11;89.67
41636;BME280;27623;51.966;4.602;2023-01-29T13:50:31;63788.50;;;6.27;88.90
41636;BME280;27623;51.966;4.602;2023-01-29T13:53:02;63775.50;;;6.29;88.40
41636;BME280;27623;51.966;4.602;2023-01-29T13:55:34;63799.72;;;6.20;88.94
41636;BME280;27623;51.966;4.602;2023-01-29T14:10:26;63759.97;;;6.09;89.09
41636;BME280;27623;51.966;4.602;2023-01-29T14:12:53;63758.34;;;6.15;89.49
41636;BME280;27623;51.966;4.602;2023-01-29T14:15:25;63815.59;;;6.24;89.79
41636;BME280;27623;51.966;4.602;2023-01-29T14:20:30;63827.38;;;6.39;90.54
41636;BME280;27623;51.966;4.602;2023-01-29T14:22:58;63793.22;;;6.22;90.02
41636;BME280;27623;51.966;4.602;2023-01-29T14:25:30;63772.25;;;6.04;91.04
41636;BME280;27623;51.966;4.602;2023-01-29T14:27:58;63823.03;;;6.21;91.07
41636;BME280;27623;51.966;4.602;2023-01-29T14:30:28;63806.41;;;6.29;90.08
41636;BME280;27623;51.966;4.602;2023-01-29T14:32:55;63784.72;;;6.37;90.27
41636;BME280;27623;51.966;4.602;2023-01-29T14:37:48;63802.97;;;6.31;89.97
41636;BME280;27623;51.966;4.602;2023-01-29T14:40:23;63786.16;;;6.22;90.79
41636;BME280;27623;51.966;4.602;2023-01-29T14:43:21;63758.34;;;6.01;91.15
41636;BME280;27623;51.966;4.602;2023-01-29T14:45:47;63780.91;;;6.12;92.33
41636;BME280;27623;51.966;4.602;2023-01-29T14:48:35;63777.47;;;6.07;91.71
41636;BME280;27623;51.966;4.602;2023-01-29T14:51:07;63773.69;;;6.10;92.74
41636;BME280;27623;51.966;4.602;2023-01-29T14:53:47;63792.84;;;6.16;91.42
41636;BME280;27623;51.966;4.602;2023-01-29T14:56:16;63760.13;;;5.91;92.11
41636;BME280;27623;51.966;4.602;2023-01-29T14:58:55;63787.25;;;5.95;93.19
41636;BME280;27623;51.966;4.602;2023-01-29T15:01:25;63777.44;;;5.85;93.71
41636;BME280;27623;51.966;4.602;2023-01-29T15:04:25;63767.56;;;5.95;92.98
41636;BME280;27623;51.966;4.602;2023-01-29T15:07:10;63789.22;;;6.15;93.16
41636;BME280;27623;51.966;4.602;2023-01-29T15:09:59;63758.53;;;5.96;93.09
41636;BME280;27623;51.966;4.602;2023-01-29T15:13:07;63763.91;;;5.87;93.78
41636;BME280;27623;51.966;4.602;2023-01-29T15:15:45;63780.72;;;6.03;93.04
41636;BME280;27623;51.966;4.602;2023-01-29T15:18:19;63751.97;;;5.83;93.69
41636;BME280;27623;51.966;4.602;2023-01-29T15:21:08;63751.81;;;5.80;93.53
41636;BME280;27623;51.966;4.602;2023-01-29T15:23:36;63743.16;;;5.79;95.16
41636;BME280;27623;51.966;4.602;2023-01-29T15:26:04;63727.97;;;5.65;95.44
41636;BME280;27623;51.966;4.602;2023-01-29T15:28:33;63742.78;;;5.60;96.39
41636;BME280;27623;51.966;4.602;2023-01-29T15:31:04;63759.94;;;5.81;97.39
41636;BME280;27623;51.966;4.602;2023-01-29T15:33:32;63741.16;;;5.80;98.22
41636;BME280;27623;51.966;4.602;2023-01-29T15:36:00;63755.94;;;5.82;99.40
41636;BME280;27623;51.966;4.602;2023-01-29T15:38:26;63730.88;;;5.70;99.60